createdAt,value
2022-12-01T00:03:09.740Z,3.55
2022-12-01T00:08:08.776Z,3.22
2022-12-01T00:13:10.815Z,3.23
2022-12-01T00:18:12.924Z,3.69
2022-12-01T00:23:12.125Z,3.32
2022-12-01T00:28:11.362Z,3.28
2022-12-01T00:33:10.106Z,3.08
2022-12-01T00:38:09.601Z,3.21
2022-12-01T00:43:09.885Z,3.33
2022-12-01T00:48:11.002Z,3.00
2022-12-01T00:53:08.901Z,2.96
2022-12-01T00:58:08.394Z,3.08
2022-12-01T01:03:08.181Z,3.27
2022-12-01T01:08:09.566Z,3.39
2022-12-01T01:13:13.326Z,3.11
2022-12-01T01:18:12.445Z,3.08
2022-12-01T01:23:13.332Z,2.98
2022-12-01T01:28:12.721Z,3.07
2022-12-01T01:33:13.740Z,2.97
2022-12-01T01:38:15.041Z,2.73
2022-12-01T01:43:16.628Z,2.46
2022-12-01T01:48:17.420Z,2.41
2022-12-01T01:53:20.881Z,2.46
2022-12-01T01:58:20.053Z,2.74
2022-12-01T02:03:21.515Z,2.62
2022-12-01T02:08:21.072Z,2.38
2022-12-01T02:13:43.077Z,2.76
2022-12-01T02:18:54.194Z,2.62
2022-12-01T02:23:58.257Z,2.51
2022-12-01T02:29:20.772Z,3.09
2022-12-01T02:34:27.191Z,3.02
2022-12-01T02:39:30.108Z,3.05
2022-12-01T02:44:34.164Z,2.71
2022-12-01T02:49:35.714Z,3.09
2022-12-01T02:54:35.080Z,2.70
2022-12-01T02:59:34.464Z,2.42
2022-12-01T03:05:04.316Z,2.47
2022-12-01T03:10:27.954Z,2.52
2022-12-01T03:15:26.675Z,2.45
2022-12-01T03:20:47.969Z,2.58
2022-12-01T03:25:49.012Z,2.71
2022-12-01T03:30:47.689Z,2.44
2022-12-01T03:35:52.031Z,2.22
2022-12-01T03:40:51.669Z,2.26
2022-12-01T03:45:53.148Z,2.42
2022-12-01T03:50:53.524Z,2.75
2022-12-01T03:55:56.567Z,2.39
2022-12-01T04:00:57.829Z,2.47
2022-12-01T04:05:58.255Z,2.73
2022-12-01T04:10:58.047Z,2.56
2022-12-01T04:15:57.372Z,2.43
2022-12-01T04:21:07.099Z,2.77
2022-12-01T04:26:12.631Z,2.40
2022-12-01T04:31:22.876Z,2.86
2022-12-01T04:36:21.559Z,2.32
2022-12-01T04:41:26.081Z,2.31
2022-12-01T04:46:27.581Z,2.23
2022-12-01T04:51:27.129Z,2.19
2022-12-01T04:56:24.674Z,2.55
2022-12-01T05:01:25.797Z,2.39
2022-12-01T05:06:29.543Z,2.45
2022-12-01T05:11:30.791Z,2.62
2022-12-01T05:16:32.102Z,2.12
2022-12-01T05:21:34.500Z,2.07
2022-12-01T05:26:33.411Z,2.38
2022-12-01T05:31:37.314Z,2.28
2022-12-01T05:36:36.760Z,2.33
2022-12-01T05:41:34.798Z,2.12
2022-12-01T05:46:34.248Z,2.19
2022-12-01T05:51:33.862Z,2.10
2022-12-01T05:56:35.943Z,2.19
2022-12-01T06:01:38.179Z,2.06
2022-12-01T06:06:37.843Z,2.03
2022-12-01T06:11:44.286Z,1.93
2022-12-01T06:16:48.283Z,1.92
2022-12-01T06:21:49.841Z,1.95
2022-12-01T06:26:50.174Z,1.97
2022-12-01T06:31:50.489Z,1.78
2022-12-01T06:36:48.007Z,1.87
2022-12-01T06:41:48.180Z,1.75
2022-12-01T06:46:47.197Z,1.70
2022-12-01T06:51:45.403Z,1.72
2022-12-01T06:56:46.181Z,1.81
2022-12-01T07:01:45.642Z,1.92
2022-12-01T07:06:44.821Z,1.80
2022-12-01T07:11:44.915Z,1.83
2022-12-01T07:16:44.707Z,1.99
2022-12-01T07:21:43.432Z,1.89
2022-12-01T07:26:55.610Z,1.87
2022-12-01T07:31:54.079Z,1.75
2022-12-01T07:36:53.191Z,1.90
2022-12-01T07:41:52.730Z,2.02
2022-12-01T07:46:50.580Z,2.19
2022-12-01T07:51:48.578Z,2.20
2022-12-01T07:56:46.473Z,2.40
2022-12-01T08:01:46.257Z,2.21
2022-12-01T08:06:44.261Z,2.10
2022-12-01T08:11:44.791Z,2.13
2022-12-01T08:16:43.511Z,2.15
2022-12-01T08:21:42.754Z,2.32
2022-12-01T08:26:41.294Z,2.60
2022-12-01T08:31:43.315Z,2.32
2022-12-01T08:36:42.224Z,2.16
2022-12-01T08:41:44.339Z,2.35
2022-12-01T08:46:43.068Z,2.59
2022-12-01T08:51:41.619Z,2.61
2022-12-01T08:56:42.496Z,2.57
2022-12-01T09:01:57.100Z,2.57
2022-12-01T09:06:56.598Z,2.65
2022-12-01T09:11:54.059Z,2.59
2022-12-01T09:16:55.846Z,2.62
2022-12-01T09:21:53.287Z,2.72
2022-12-01T09:26:51.178Z,2.72
2022-12-01T09:31:50.445Z,2.61
2022-12-01T09:36:49.325Z,2.36
2022-12-01T09:42:13.188Z,2.19
2022-12-01T09:47:15.072Z,2.37
2022-12-01T09:52:16.638Z,2.73
2022-12-01T09:57:35.816Z,2.69
2022-12-01T10:02:54.380Z,1.87
2022-12-01T10:07:59.237Z,2.40
2022-12-01T10:13:00.749Z,2.15
2022-12-01T10:18:14.859Z,2.65
2022-12-01T10:23:33.595Z,2.22
2022-12-01T10:28:51.094Z,2.08
2022-12-01T10:34:01.746Z,1.88
2022-12-01T10:38:59.162Z,2.44
2022-12-01T10:44:01.035Z,2.46
2022-12-01T10:49:00.981Z,2.71
2022-12-01T10:54:03.611Z,2.72
2022-12-01T10:59:06.017Z,3.00
2022-12-01T11:04:08.190Z,2.70
2022-12-01T11:09:07.636Z,2.59
2022-12-01T11:14:06.929Z,2.31
2022-12-01T11:19:27.478Z,2.06
2022-12-01T11:24:43.719Z,1.97
2022-12-01T11:29:41.359Z,2.19
2022-12-01T11:34:39.600Z,2.33
2022-12-01T11:39:38.164Z,2.51
2022-12-01T11:44:55.555Z,2.55
2022-12-01T11:49:57.693Z,2.82
2022-12-01T11:55:03.267Z,2.62
2022-12-01T12:00:20.667Z,2.17
2022-12-01T12:05:23.361Z,2.33
2022-12-01T12:10:34.714Z,2.18
2022-12-01T12:21:28.707Z,2.90
2022-12-01T12:26:35.434Z,2.58
2022-12-01T12:31:48.542Z,2.73
2022-12-01T12:37:05.878Z,2.43
2022-12-01T12:42:06.054Z,2.71
2022-12-01T12:47:13.254Z,2.64
2022-12-01T12:52:23.544Z,2.50
2022-12-01T12:57:22.674Z,2.29
2022-12-01T13:02:29.956Z,2.16
2022-12-01T13:07:32.793Z,2.05
2022-12-01T13:12:35.172Z,2.07
2022-12-01T13:17:39.066Z,2.08
2022-12-01T13:22:37.370Z,2.42
2022-12-01T13:27:35.960Z,2.37
2022-12-01T13:32:35.428Z,2.16
2022-12-01T13:37:43.936Z,2.33
2022-12-01T13:42:43.363Z,2.46
2022-12-01T13:47:48.020Z,2.74
2022-12-01T13:52:49.978Z,2.75
2022-12-01T13:57:54.412Z,2.32
2022-12-01T14:03:13.689Z,2.46
2022-12-01T14:08:22.785Z,2.70
2022-12-01T14:13:22.961Z,2.41
2022-12-01T14:18:27.503Z,2.83
2022-12-01T14:23:30.734Z,2.40
2022-12-01T14:29:00.673Z,2.49
2022-12-01T14:34:18.790Z,2.58
2022-12-01T14:39:31.463Z,2.59
2022-12-01T14:44:48.849Z,2.72
2022-12-01T14:49:56.724Z,2.97
2022-12-01T14:54:55.947Z,2.64
2022-12-01T15:00:05.127Z,2.53
2022-12-01T15:05:06.472Z,2.51
2022-12-01T15:10:04.928Z,2.45
2022-12-01T15:15:02.862Z,2.23
2022-12-01T15:20:00.599Z,2.20
2022-12-01T15:25:12.888Z,1.96
2022-12-01T15:30:13.881Z,2.13
2022-12-01T15:35:20.162Z,2.58
2022-12-01T15:45:48.920Z,2.09
2022-12-01T15:50:59.366Z,2.63
2022-12-01T15:55:59.626Z,2.78
2022-12-01T16:01:04.428Z,2.60
2022-12-01T16:06:02.203Z,2.47
2022-12-01T16:11:15.029Z,2.19
2022-12-01T16:16:26.608Z,2.21
2022-12-01T16:21:26.930Z,2.19
2022-12-01T16:26:27.115Z,2.46
2022-12-01T16:31:28.647Z,2.45
2022-12-01T16:36:27.021Z,2.23
2022-12-01T16:41:29.529Z,2.15
2022-12-01T16:46:30.400Z,2.06
2022-12-01T16:51:56.860Z,1.95
2022-12-01T16:56:56.171Z,2.03
2022-12-01T17:01:55.300Z,1.80
2022-12-01T17:07:05.366Z,1.83
2022-12-01T17:12:06.349Z,2.11
2022-12-01T17:17:05.542Z,2.28
2022-12-01T17:22:06.211Z,2.58
2022-12-01T17:27:05.437Z,2.55
2022-12-01T17:32:08.499Z,2.16
2022-12-01T17:37:07.291Z,2.36
2022-12-01T17:42:08.808Z,2.46
2022-12-01T17:47:09.457Z,2.45
2022-12-01T17:52:10.428Z,2.47
2022-12-01T17:57:09.161Z,2.23
2022-12-01T18:02:08.230Z,2.25
2022-12-01T18:07:07.625Z,2.62
2022-12-01T18:12:06.187Z,2.39
2022-12-01T18:17:05.341Z,2.22
2022-12-01T18:22:10.516Z,1.93
2022-12-01T18:27:08.776Z,1.88
2022-12-01T18:32:07.973Z,2.00
2022-12-01T18:37:08.736Z,2.13
2022-12-01T18:42:07.278Z,2.45
2022-12-01T18:47:06.760Z,2.30
2022-12-01T18:52:07.289Z,2.61
2022-12-01T18:57:09.086Z,2.72
2022-12-01T19:02:07.036Z,2.91
2022-12-01T19:07:08.927Z,2.44
2022-12-01T19:12:07.856Z,2.71
2022-12-01T19:17:07.228Z,2.51
2022-12-01T19:22:06.499Z,2.72
2022-12-01T19:27:05.357Z,2.52
2022-12-01T19:32:04.511Z,2.74
2022-12-01T19:37:06.029Z,2.49
2022-12-01T19:42:05.521Z,2.66
2022-12-01T19:47:06.654Z,2.40
2022-12-01T19:52:06.706Z,2.42
2022-12-01T19:57:08.903Z,2.53
2022-12-01T20:02:06.913Z,2.80
2022-12-01T20:07:07.395Z,2.74
2022-12-01T20:12:07.834Z,2.47
2022-12-01T20:17:06.153Z,2.53
2022-12-01T20:22:04.494Z,2.38
2022-12-01T20:27:05.434Z,2.12
2022-12-01T20:32:04.478Z,2.34
2022-12-01T20:37:02.859Z,2.23
2022-12-01T20:42:01.456Z,2.35
2022-12-01T20:47:00.209Z,2.21
2022-12-01T20:51:59.786Z,2.44
2022-12-01T20:56:58.638Z,2.00
2022-12-01T21:02:02.569Z,1.92
2022-12-01T21:07:03.768Z,2.41
2022-12-01T21:12:22.781Z,2.28
2022-12-01T21:17:24.210Z,2.31
2022-12-01T21:22:25.473Z,2.39
2022-12-01T21:27:27.044Z,2.40
2022-12-01T21:32:31.581Z,2.62
2022-12-01T21:37:28.785Z,2.45
2022-12-01T21:42:27.995Z,2.56
2022-12-01T21:47:29.450Z,2.60
2022-12-01T21:52:32.957Z,2.77
2022-12-01T21:57:43.394Z,2.25
2022-12-01T22:02:51.618Z,2.41
2022-12-01T22:07:50.273Z,2.54
2022-12-01T22:12:48.924Z,2.78
2022-12-01T22:17:47.676Z,2.72
2022-12-01T22:22:46.143Z,2.72
2022-12-01T22:27:46.590Z,2.77
2022-12-01T22:33:04.214Z,2.66
2022-12-01T22:38:18.538Z,2.69
2022-12-01T22:43:16.018Z,2.62
2022-12-01T22:48:19.184Z,2.49
2022-12-01T22:53:18.189Z,2.08
2022-12-01T22:58:26.449Z,2.07
2022-12-01T23:03:26.100Z,2.26
2022-12-01T23:08:26.070Z,2.45
2022-12-01T23:13:25.287Z,2.47
2022-12-01T23:18:24.648Z,2.43
2022-12-01T23:23:30.740Z,2.24
2022-12-01T23:28:30.230Z,2.30
2022-12-01T23:33:32.043Z,2.03
2022-12-01T23:38:32.371Z,2.32
2022-12-01T23:43:31.681Z,2.06
2022-12-01T23:48:38.673Z,2.07
2022-12-01T23:53:40.782Z,2.13
2022-12-01T23:58:39.568Z,2.31
